Time;durP1;ratioP1;P1;durP2;ratioP2;P2;SDS_P1;SDS_P2;PMS_P1;PMS_P2;Temp;Humidity;BMP_temperature;BMP_pressure;BME280_temperature;BME280_humidity;BME280_pressure;Samples;Min_cycle;Max_cycle;Signal;HPM_P1;HPM_P2
2021/07/03 00:01:34;;;;;;;15.48;9.80;;;14.30;99.90;;;;;;5060173;28;20488;-69
2021/07/03 00:04:02;;;;;;;15.80;9.90;;;14.20;99.90;;;;;;5083999;28;20045;-69
2021/07/03 00:06:29;;;;;;;17.83;9.98;;;14.20;99.90;;;;;;5068843;28;20041;-69
2021/07/03 00:08:57;;;;;;;13.82;10.10;;;14.10;99.90;;;;;;5060745;28;20043;-69
2021/07/03 00:11:24;;;;;;;14.77;9.98;;;14.10;99.90;;;;;;5051630;28;20103;-68
2021/07/03 00:13:52;;;;;;;15.18;10.23;;;14.00;99.90;;;;;;5045688;28;20195;-68
2021/07/03 00:16:19;;;;;;;14.73;10.57;;;14.00;99.90;;;;;;5066297;28;20088;-69
2021/07/03 00:18:47;;;;;;;14.23;9.98;;;14.00;99.90;;;;;;5069490;28;20044;-68
2021/07/03 00:21:14;;;;;;;14.38;9.93;;;14.00;99.90;;;;;;5067716;28;20044;-69
2021/07/03 00:23:42;;;;;;;16.00;10.40;;;14.00;99.90;;;;;;5057744;28;20106;-69
2021/07/03 00:26:09;;;;;;;15.55;10.63;;;13.90;99.90;;;;;;5057661;28;20175;-68
2021/07/03 00:28:37;;;;;;;17.77;10.95;;;13.90;99.90;;;;;;5068144;28;20057;-68
2021/07/03 00:31:04;;;;;;;14.63;9.50;;;13.90;99.90;;;;;;5058127;28;20572;-68
2021/07/03 00:33:32;;;;;;;13.65;9.98;;;13.80;99.90;;;;;;5053298;28;20037;-68
2021/07/03 00:35:59;;;;;;;14.02;9.95;;;13.80;99.90;;;;;;5047639;28;20041;-68
2021/07/03 00:38:27;;;;;;;15.60;10.43;;;13.70;99.90;;;;;;5045531;28;20407;-69
2021/07/03 00:40:55;;;;;;;16.20;10.60;;;13.70;99.90;;;;;;5048086;28;20112;-69
2021/07/03 00:43:22;;;;;;;16.23;9.18;;;13.70;99.90;;;;;;5043309;28;20071;-69
2021/07/03 00:45:50;;;;;;;14.65;9.73;;;13.70;99.90;;;;;;5059267;28;20068;-68
2021/07/03 00:48:17;;;;;;;15.00;9.98;;;13.70;99.90;;;;;;5050706;28;20068;-69
2021/07/03 00:50:45;;;;;;;16.85;9.80;;;13.70;99.90;;;;;;5052470;28;20052;-69
2021/07/03 00:53:16;;;;;;;15.45;10.10;;;13.70;99.90;;;;;;5047339;28;20037;-68
2021/07/03 00:55:46;;;;;;;13.63;9.15;;;13.70;99.90;;;;;;5045892;28;20068;-68
2021/07/03 00:58:14;;;;;;;14.82;10.23;;;13.70;99.90;;;;;;5062203;28;20037;-69
2021/07/03 01:00:42;;;;;;;13.23;9.32;;;13.70;99.90;;;;;;5054681;28;20132;-68
2021/07/03 01:03:10;;;;;;;16.70;9.52;;;13.80;99.90;;;;;;5060323;28;20507;-68
2021/07/03 01:05:38;;;;;;;13.70;9.93;;;13.80;99.90;;;;;;5049725;28;20048;-68
2021/07/03 01:08:05;;;;;;;14.07;10.13;;;13.90;99.90;;;;;;5026007;28;20050;-68
2021/07/03 01:10:35;;;;;;;16.38;10.30;;;14.00;99.90;;;;;;5043357;28;20049;-68
2021/07/03 01:13:12;;;;;;;14.95;10.13;;;14.10;99.90;;;;;;5044886;28;20116;-69
2021/07/03 01:15:40;;;;;;;14.48;9.27;;;14.20;99.90;;;;;;5044608;28;20044;-69
2021/07/03 01:18:08;;;;;;;14.05;9.82;;;14.20;99.90;;;;;;5021485;28;20053;-69
2021/07/03 01:20:38;;;;;;;15.45;10.38;;;14.30;99.90;;;;;;5030881;28;20046;-68
2021/07/03 01:23:07;;;;;;;13.32;10.15;;;14.50;99.90;;;;;;5015570;28;20057;-69
2021/07/03 01:25:35;;;;;;;14.50;10.50;;;14.50;99.90;;;;;;5049206;28;20053;-69
2021/07/03 01:28:06;;;;;;;17.40;11.00;;;14.60;99.90;;;;;;5039267;28;20472;-69
2021/07/03 01:30:39;;;;;;;17.60;10.45;;;14.50;99.90;;;;;;5050212;28;20052;-68
2021/07/03 01:33:07;;;;;;;14.32;10.20;;;14.50;99.90;;;;;;5031473;28;20115;-68
2021/07/03 01:35:34;;;;;;;17.50;10.13;;;14.40;99.90;;;;;;5039596;28;20053;-69
2021/07/03 01:38:15;;;;;;;14.82;9.90;;;14.40;99.90;;;;;;5000999;28;20045;-69
2021/07/03 01:40:42;;;;;;;16.15;10.60;;;14.40;99.90;;;;;;5032415;28;20045;-68
2021/07/03 01:43:11;;;;;;;16.65;9.90;;;14.40;99.90;;;;;;5031299;28;20049;-68
2021/07/03 01:45:39;;;;;;;16.92;10.43;;;14.40;99.90;;;;;;5033919;28;20419;-68
2021/07/03 01:48:07;;;;;;;15.07;10.38;;;14.50;99.90;;;;;;5016275;28;20055;-68
2021/07/03 01:50:36;;;;;;;16.23;10.25;;;14.50;99.90;;;;;;5034333;28;20057;-68
2021/07/03 01:53:04;;;;;;;14.40;9.52;;;14.50;99.90;;;;;;5017824;28;20410;-68
2021/07/03 01:55:33;;;;;;;11.57;8.82;;;14.40;99.90;;;;;;5039827;28;20037;-68
2021/07/03 01:58:01;;;;;;;16.08;9.50;;;14.50;99.90;;;;;;5042576;28;20496;-68
2021/07/03 02:00:36;;;;;;;14.82;9.73;;;14.40;99.90;;;;;;5042193;28;20048;-68
2021/07/03 02:03:15;;;;;;;14.15;9.40;;;14.50;99.90;;;;;;5034827;28;20049;-68
2021/07/03 02:05:46;;;;;;;15.90;10.38;;;14.50;99.90;;;;;;5040038;28;20041;-68
2021/07/03 02:08:19;;;;;;;;;;;14.50;99.90;;;;;;5046844;28;20408;-68
2021/07/03 02:10:57;;;;;;;14.85;10.25;;;14.50;99.90;;;;;;5047777;28;19921;-68
2021/07/03 02:13:26;;;;;;;13.68;9.02;;;14.40;99.90;;;;;;5013560;28;20135;-68
2021/07/03 02:15:54;;;;;;;13.80;10.07;;;14.40;99.90;;;;;;5047889;28;20550;-68
2021/07/03 02:18:29;;;;;;;13.13;9.70;;;14.40;99.90;;;;;;5045999;28;20115;-68
2021/07/03 02:21:00;;;;;;;14.95;10.20;;;14.30;99.90;;;;;;5040391;28;20423;-68
2021/07/03 02:23:30;;;;;;;13.05;8.57;;;14.30;99.90;;;;;;5036275;28;20064;-68
2021/07/03 02:25:59;;;;;;;15.82;9.95;;;14.20;99.90;;;;;;5041025;28;20103;-68
2021/07/03 02:28:32;;;;;;;14.93;10.38;;;14.20;99.90;;;;;;5030852;28;20076;-68
2021/07/03 02:31:12;;;;;;;15.10;9.50;;;14.20;99.90;;;;;;5036660;28;20385;-68
2021/07/03 02:33:44;;;;;;;15.73;9.88;;;14.10;99.90;;;;;;5036677;28;20121;-68
2021/07/03 02:36:15;;;;;;;14.27;9.27;;;14.10;99.90;;;;;;5034120;28;20045;-68
2021/07/03 02:38:42;;;;;;;13.98;9.27;;;14.10;99.90;;;;;;5041684;28;20037;-68
2021/07/03 02:41:12;;;;;;;13.98;9.43;;;14.00;99.90;;;;;;5038109;28;20050;-68
2021/07/03 02:43:39;;;;;;;13.10;8.50;;;14.00;99.90;;;;;;5014008;28;20100;-68
2021/07/03 02:46:11;;;;;;;13.80;9.53;;;14.00;99.90;;;;;;5032911;28;20057;-68
2021/07/03 02:48:38;;;;;;;17.13;9.73;;;14.00;99.90;;;;;;5027015;28;20069;-68
2021/07/03 02:51:06;;;;;;;13.70;9.40;;;14.00;99.90;;;;;;5040617;28;20049;-68
2021/07/03 02:53:34;;;;;;;14.98;9.45;;;14.00;99.90;;;;;;5030439;28;20544;-68
2021/07/03 02:56:02;;;;;;;12.52;8.93;;;13.90;99.90;;;;;;5035398;28;20144;-68
2021/07/03 02:58:33;;;;;;;15.57;9.65;;;13.80;99.90;;;;;;5050451;28;20116;-68
2021/07/03 03:01:01;;;;;;;14.15;9.93;;;13.80;99.90;;;;;;5045292;28;20473;-68
2021/07/03 03:03:31;;;;;;;15.52;10.10;;;13.70;99.90;;;;;;5017416;28;20484;-68
2021/07/03 03:05:59;;;;;;;14.32;9.68;;;13.70;99.90;;;;;;5033309;28;20814;-68
2021/07/03 03:08:27;;;;;;;13.23;9.18;;;13.60;99.90;;;;;;5034025;28;20094;-68
2021/07/03 03:10:55;;;;;;;14.98;9.65;;;13.60;99.90;;;;;;5041538;28;20573;-68
2021/07/03 03:13:24;;;;;;;17.27;10.63;;;13.60;99.90;;;;;;5050778;28;20618;-68
2021/07/03 03:15:52;;;;;;;16.27;10.60;;;13.50;99.90;;;;;;5049959;28;20463;-68
2021/07/03 03:18:20;;;;;;;13.85;9.23;;;13.50;99.90;;;;;;5032667;28;20033;-68
2021/07/03 03:20:47;;;;;;;13.75;9.05;;;13.50;99.90;;;;;;5049319;28;20048;-68
2021/07/03 03:23:17;;;;;;;15.90;11.05;;;13.50;99.90;;;;;;5047356;28;20045;-68
2021/07/03 03:25:45;;;;;;;13.77;9.18;;;13.40;99.90;;;;;;5048769;28;20132;-68
2021/07/03 03:28:14;;;;;;;13.10;9.50;;;13.40;99.90;;;;;;5045585;28;20047;-68
2021/07/03 03:30:42;;;;;;;13.38;9.82;;;13.40;99.90;;;;;;5050183;28;20690;-68
2021/07/03 03:33:17;;;;;;;14.65;9.63;;;13.40;99.90;;;;;;5043019;28;20041;-68
2021/07/03 03:35:45;;;;;;;16.52;9.52;;;13.40;99.90;;;;;;5047378;28;20500;-68
2021/07/03 03:38:12;;;;;;;13.30;9.63;;;13.40;99.90;;;;;;5032603;28;20044;-68
2021/07/03 03:40:42;;;;;;;14.88;10.45;;;13.40;99.90;;;;;;5014194;28;20132;-68
2021/07/03 03:43:13;;;;;;;12.65;9.25;;;13.40;99.90;;;;;;5014302;28;20526;-68
2021/07/03 03:45:44;;;;;;;14.52;9.90;;;13.40;99.90;;;;;;5029569;28;20051;-68
2021/07/03 03:48:16;;;;;;;14.73;10.20;;;13.50;99.90;;;;;;5045291;28;20537;-68
2021/07/03 03:50:51;;;;;;;13.35;9.25;;;13.50;99.90;;;;;;5048877;28;20079;-68
2021/07/03 03:53:20;;;;;;;14.25;8.90;;;13.60;99.90;;;;;;5034920;28;20384;-68
2021/07/03 03:55:48;;;;;;;13.65;9.55;;;13.60;99.90;;;;;;5033997;28;20041;-68
2021/07/03 03:58:18;;;;;;;14.65;9.52;;;13.70;99.90;;;;;;5031894;28;20052;-68
2021/07/03 04:00:45;;;;;;;14.60;9.95;;;13.70;99.90;;;;;;5048664;28;20033;-68
2021/07/03 04:03:13;;;;;;;14.88;9.57;;;13.80;99.90;;;;;;5031665;28;20110;-68
2021/07/03 04:05:44;;;;;;;15.65;9.95;;;13.80;99.90;;;;;;5039353;28;20143;-68
2021/07/03 04:08:12;;;;;;;15.20;10.25;;;13.80;99.90;;;;;;5039601;28;20107;-68
2021/07/03 04:10:42;;;;;;;15.43;10.43;;;13.90;99.90;;;;;;5045368;28;20071;-68
2021/07/03 04:13:09;;;;;;;15.25;10.38;;;14.00;99.90;;;;;;5048798;28;20079;-68
2021/07/03 04:15:37;;;;;;;15.70;10.02;;;14.00;99.90;;;;;;5047825;28;20046;-68
2021/07/03 04:18:04;;;;;;;13.55;9.55;;;14.10;99.90;;;;;;5032753;28;20044;-68
2021/07/03 04:20:32;;;;;;;15.50;10.27;;;14.20;99.90;;;;;;5030658;28;20041;-68
2021/07/03 04:22:59;;;;;;;13.88;9.07;;;14.20;99.90;;;;;;5042160;28;20063;-68
2021/07/03 04:25:27;;;;;;;14.38;9.13;;;14.30;99.90;;;;;;5045555;28;20041;-68
2021/07/03 04:27:55;;;;;;;15.18;10.77;;;14.30;99.90;;;;;;5048980;28;20037;-68
2021/07/03 04:30:23;;;;;;;13.45;8.35;;;14.40;99.90;;;;;;5009921;28;20041;-68
2021/07/03 04:32:50;;;;;;;11.73;8.23;;;14.50;99.90;;;;;;5048819;28;20041;-68
2021/07/03 04:35:18;;;;;;;12.82;9.05;;;14.60;99.90;;;;;;5050726;28;20132;-68
2021/07/03 04:37:45;;;;;;;11.95;8.40;;;14.70;99.90;;;;;;5018412;28;20041;-68
2021/07/03 04:40:13;;;;;;;13.13;9.10;;;14.80;99.90;;;;;;5023934;28;20444;-68
2021/07/03 04:42:44;;;;;;;13.27;8.50;;;14.80;99.90;;;;;;5047905;28;20051;-68
2021/07/03 04:45:15;;;;;;;13.25;8.70;;;15.00;99.90;;;;;;5052596;28;20099;-68
2021/07/03 04:47:43;;;;;;;11.57;8.18;;;15.10;99.90;;;;;;5033180;28;20046;-68
2021/07/03 04:50:11;;;;;;;13.05;8.45;;;15.20;99.90;;;;;;5052469;28;20107;-68
2021/07/03 04:52:38;;;;;;;12.05;8.57;;;15.20;99.90;;;;;;5039451;28;20551;-68
2021/07/03 04:55:08;;;;;;;14.52;9.38;;;15.30;99.90;;;;;;5042883;28;20106;-68
2021/07/03 04:57:35;;;;;;;11.77;8.27;;;15.50;99.90;;;;;;5027619;28;20579;-68
2021/07/03 05:00:05;;;;;;;13.43;9.48;;;15.50;99.90;;;;;;5035570;28;20033;-68
2021/07/03 05:02:32;;;;;;;13.80;8.95;;;15.60;99.90;;;;;;5042380;28;20036;-68
2021/07/03 05:05:01;;;;;;;12.63;9.23;;;15.70;99.90;;;;;;5052658;28;20060;-68
2021/07/03 05:07:28;;;;;;;12.55;8.77;;;15.90;99.90;;;;;;5053857;28;20040;-68
2021/07/03 05:10:00;;;;;;;13.43;8.98;;;16.00;99.90;;;;;;5045322;28;20064;-69
2021/07/03 05:12:27;;;;;;;12.52;9.13;;;16.20;99.90;;;;;;5046665;28;20052;-68
2021/07/03 05:14:54;;;;;;;10.77;7.78;;;16.20;99.90;;;;;;5046449;28;20102;-68
2021/07/03 05:17:22;;;;;;;11.93;8.15;;;16.40;99.90;;;;;;5052384;28;20095;-68
2021/07/03 05:19:49;;;;;;;11.65;8.00;;;16.50;99.90;;;;;;5039700;28;20166;-68
2021/07/03 05:22:17;;;;;;;13.52;9.35;;;16.60;99.90;;;;;;5051379;28;20041;-68
2021/07/03 05:24:44;;;;;;;14.00;9.48;;;16.60;99.90;;;;;;5044117;28;20069;-68
2021/07/03 05:27:11;;;;;;;10.30;7.43;;;16.60;99.90;;;;;;5047797;28;20053;-68
2021/07/03 05:29:38;;;;;;;10.77;7.93;;;16.70;99.90;;;;;;5050959;28;20072;-69
2021/07/03 05:32:06;;;;;;;12.02;7.93;;;16.70;99.90;;;;;;5047669;28;20044;-69
2021/07/03 05:34:34;;;;;;;10.80;7.97;;;16.80;99.90;;;;;;5038954;28;20553;-69
2021/07/03 05:37:02;;;;;;;12.45;8.38;;;16.80;99.90;;;;;;5052744;28;20074;-69
2021/07/03 05:39:29;;;;;;;12.25;7.75;;;16.80;99.90;;;;;;5033024;28;20140;-68
2021/07/03 05:41:56;;;;;;;13.18;7.63;;;16.90;99.90;;;;;;5040704;28;20120;-68
2021/07/03 05:44:24;;;;;;;12.15;7.75;;;17.10;99.90;;;;;;5051157;28;20064;-68
2021/07/03 05:46:52;;;;;;;12.57;8.60;;;17.20;99.90;;;;;;5038139;28;20053;-69
2021/07/03 05:49:19;;;;;;;13.25;8.07;;;17.20;99.90;;;;;;5039122;28;20160;-69
2021/07/03 05:51:47;;;;;;;10.25;7.18;;;17.30;99.90;;;;;;5044726;28;20041;-68
2021/07/03 05:54:15;;;;;;;12.90;9.02;;;17.30;99.90;;;;;;5041399;28;20069;-68
2021/07/03 05:56:43;;;;;;;12.93;9.07;;;17.40;99.90;;;;;;5051317;28;20052;-69
2021/07/03 05:59:11;;;;;;;14.98;9.88;;;17.40;99.90;;;;;;5017502;28;20361;-68
2021/07/03 06:01:38;;;;;;;13.45;8.10;;;17.50;99.90;;;;;;5052852;28;20496;-69
2021/07/03 06:04:06;;;;;;;14.50;8.52;;;17.40;99.90;;;;;;5050701;28;20048;-69
2021/07/03 06:06:34;;;;;;;12.75;9.38;;;17.50;99.90;;;;;;5039521;28;20049;-69
2021/07/03 06:09:01;;;;;;;14.20;8.32;;;17.50;99.90;;;;;;5047705;28;20139;-69
2021/07/03 06:11:28;;;;;;;10.82;7.43;;;17.60;99.90;;;;;;5040490;28;20547;-69
2021/07/03 06:13:56;;;;;;;10.38;7.32;;;17.60;99.90;;;;;;5047321;28;20119;-70
2021/07/03 06:16:24;;;;;;;12.77;8.35;;;17.80;99.90;;;;;;5036595;28;20470;-70
2021/07/03 06:18:51;;;;;;;13.45;9.50;;;17.80;99.90;;;;;;5033671;28;20072;-69
2021/07/03 06:21:19;;;;;;;13.23;9.93;;;17.90;99.90;;;;;;5038758;28;20051;-69
2021/07/03 06:23:46;;;;;;;12.93;9.80;;;17.80;99.90;;;;;;5039375;28;20591;-69
2021/07/03 06:26:13;;;;;;;11.75;8.88;;;17.80;99.90;;;;;;5042973;28;20454;-69
2021/07/03 06:28:41;;;;;;;15.07;9.13;;;17.80;99.90;;;;;;5041869;28;20037;-68
2021/07/03 06:31:08;;;;;;;14.82;9.77;;;17.80;99.90;;;;;;5038025;28;20125;-69
2021/07/03 06:33:35;;;;;;;15.57;11.20;;;17.80;99.90;;;;;;5032889;28;20041;-69
2021/07/03 06:36:03;;;;;;;16.13;10.85;;;17.90;99.90;;;;;;5034174;28;20061;-70
2021/07/03 06:38:30;;;;;;;13.40;9.05;;;17.90;99.90;;;;;;5030369;28;20397;-69
2021/07/03 06:40:57;;;;;;;12.88;9.80;;;17.90;99.90;;;;;;5038853;28;20045;-69
2021/07/03 06:43:25;;;;;;;14.20;9.52;;;17.90;99.90;;;;;;5038036;28;20040;-69
2021/07/03 06:45:57;;;;;;;;;;;17.90;99.90;;;;;;5052062;28;20106;-69
2021/07/03 06:48:24;;;;;;;15.82;10.15;;;17.90;99.90;;;;;;5047562;28;19963;-69
2021/07/03 06:50:52;;;;;;;14.13;9.80;;;17.90;99.90;;;;;;5033478;28;20076;-68
2021/07/03 06:53:20;;;;;;;13.68;9.82;;;17.90;99.90;;;;;;5027024;28;20055;-69
2021/07/03 06:55:47;;;;;;;15.77;9.93;;;17.90;99.90;;;;;;5043212;28;20464;-69
2021/07/03 06:58:15;;;;;;;11.82;8.77;;;17.90;99.90;;;;;;5046941;28;20464;-69
2021/07/03 07:00:42;;;;;;;13.55;9.45;;;18.00;99.90;;;;;;5043810;28;20476;-69
2021/07/03 07:03:09;;;;;;;12.50;8.43;;;18.10;99.90;;;;;;5038473;28;20504;-69
2021/07/03 07:05:37;;;;;;;13.23;9.15;;;18.20;99.90;;;;;;5051286;28;20041;-69
2021/07/03 07:08:05;;;;;;;14.23;9.75;;;18.30;99.90;;;;;;5043959;28;20156;-69
2021/07/03 07:10:33;;;;;;;12.25;8.23;;;18.50;99.90;;;;;;5029970;28;20508;-69
2021/07/03 07:13:07;;;;;;;12.18;8.77;;;18.50;99.90;;;;;;5042760;28;20110;-69
2021/07/03 07:15:35;;;;;;;12.30;9.15;;;18.60;99.90;;;;;;5043980;28;20372;-69
2021/07/03 07:18:02;;;;;;;13.88;8.93;;;18.80;99.90;;;;;;5030606;28;20052;-69
2021/07/03 07:20:30;;;;;;;12.63;8.65;;;18.80;99.90;;;;;;5035979;28;20128;-69
2021/07/03 07:22:57;;;;;;;13.25;9.55;;;18.80;99.90;;;;;;5033486;28;20045;-69
2021/07/03 07:25:25;;;;;;;12.27;8.85;;;18.80;99.90;;;;;;5027629;28;20076;-70
2021/07/03 07:27:52;;;;;;;12.48;9.00;;;18.90;99.90;;;;;;5029548;28;20480;-69
2021/07/03 07:30:21;;;;;;;14.20;9.10;;;18.90;99.90;;;;;;5025098;28;20042;-69
2021/07/03 07:32:48;;;;;;;12.57;8.85;;;19.10;99.90;;;;;;5030436;28;20088;-69
2021/07/03 07:35:16;;;;;;;14.15;9.63;;;19.30;99.90;;;;;;5031715;28;20038;-70
2021/07/03 07:37:48;;;;;;;12.90;8.48;;;19.40;99.90;;;;;;5033119;28;20396;-69
2021/07/03 07:40:17;;;;;;;11.23;8.00;;;19.50;99.90;;;;;;5041535;28;20091;-69
2021/07/03 07:42:45;;;;;;;13.20;8.75;;;19.70;99.90;;;;;;5037368;28;20407;-69
2021/07/03 07:45:13;;;;;;;12.85;8.73;;;19.70;99.90;;;;;;5047776;28;20053;-69
2021/07/03 07:47:46;;;;;;;13.52;8.20;;;19.70;99.90;;;;;;5026151;28;20453;-69
2021/07/03 07:50:14;;;;;;;10.52;7.47;;;19.80;99.90;;;;;;5037234;28;20052;-70
2021/07/03 07:52:42;;;;;;;12.07;8.40;;;19.80;99.90;;;;;;5034813;28;20497;-69
2021/07/03 07:55:11;;;;;;;12.13;8.23;;;19.90;99.90;;;;;;5042573;28;20045;-69
2021/07/03 07:57:38;;;;;;;12.20;8.45;;;19.90;99.90;;;;;;5010845;28;20049;-70
2021/07/03 08:00:07;;;;;;;12.98;8.18;;;20.10;99.90;;;;;;5044885;28;20056;-70
2021/07/03 08:02:40;;;;;;;13.60;8.45;;;20.20;99.90;;;;;;5047474;28;20041;-70
2021/07/03 08:05:09;;;;;;;12.13;8.20;;;20.40;99.90;;;;;;5045099;28;20045;-70
2021/07/03 08:07:36;;;;;;;11.32;8.15;;;20.50;99.90;;;;;;5026639;28;20067;-70
2021/07/03 08:10:05;;;;;;;12.57;7.80;;;20.50;99.90;;;;;;5042426;28;20136;-70
2021/07/03 08:12:33;;;;;;;11.70;8.10;;;20.60;99.90;;;;;;5044601;28;20076;-69
2021/07/03 08:15:02;;;;;;;11.57;7.55;;;20.60;99.90;;;;;;5032420;28;20853;-70
2021/07/03 08:17:29;;;;;;;10.48;8.13;;;20.70;99.90;;;;;;5052534;28;20033;-69
2021/07/03 08:19:57;;;;;;;13.60;8.05;;;20.90;99.90;;;;;;5041211;28;20559;-70
2021/07/03 08:22:25;;;;;;;9.57;7.20;;;21.10;99.90;;;;;;5033667;28;20160;-70
2021/07/03 08:24:52;;;;;;;11.30;7.88;;;21.30;99.90;;;;;;5037517;28;20084;-70
2021/07/03 08:27:19;;;;;;;12.30;8.18;;;21.40;99.90;;;;;;5042432;28;20140;-69
2021/07/03 08:29:46;;;;;;;10.10;7.63;;;21.60;99.90;;;;;;5036443;28;20088;-69
2021/07/03 08:32:14;;;;;;;11.55;7.72;;;21.90;99.90;;;;;;5043321;28;20061;-69
2021/07/03 08:34:41;;;;;;;11.85;7.72;;;22.00;99.90;;;;;;5038922;28;20062;-69
2021/07/03 08:37:08;;;;;;;10.77;7.95;;;22.10;99.90;;;;;;5034239;28;20042;-69
2021/07/03 08:39:36;;;;;;;13.43;7.97;;;22.10;99.90;;;;;;5033339;28;20396;-69
2021/07/03 08:42:03;;;;;;;11.05;7.50;;;22.20;99.90;;;;;;5049405;28;20048;-69
2021/07/03 08:44:31;;;;;;;10.40;7.72;;;22.10;99.90;;;;;;5034182;28;20132;-68
2021/07/03 08:46:58;;;;;;;13.20;8.13;;;22.20;99.90;;;;;;5026268;28;20081;-68
2021/07/03 08:49:25;;;;;;;9.75;7.50;;;22.20;99.90;;;;;;5014989;28;20149;-68
2021/07/03 08:51:54;;;;;;;9.68;7.20;;;22.60;99.90;;;;;;5025999;28;20049;-69
2021/07/03 08:54:21;;;;;;;9.05;6.88;;;23.00;99.90;;;;;;5046069;28;20100;-69
2021/07/03 08:56:49;;;;;;;10.20;7.80;;;23.30;99.90;;;;;;5040229;28;20065;-69
2021/07/03 08:59:22;;;;;;;9.60;6.88;;;23.30;99.90;;;;;;5045000;28;20103;-69
2021/07/03 09:01:52;;;;;;;9.77;6.65;;;23.20;99.90;;;;;;5042363;28;20041;-69
2021/07/03 09:04:33;;;;;;;10.27;7.88;;;23.10;99.90;;;;;;5043092;28;20037;-69
2021/07/03 09:07:19;;;;;;;13.48;7.60;;;23.00;99.90;;;;;;5036668;28;20044;-68
2021/07/03 09:09:55;;;;;;;11.15;8.30;;;22.70;99.90;;;;;;5052544;28;20534;-69
2021/07/03 09:12:32;;;;;;;11.68;8.63;;;22.50;99.90;;;;;;5031423;28;20111;-71
2021/07/03 09:15:14;;;;;;;15.30;8.60;;;22.40;99.90;;;;;;5046280;28;20037;-69
2021/07/03 09:17:45;;;;;;;;;;;22.60;99.90;;;;;;5036825;28;20103;-70
2021/07/03 09:20:12;;;;;;;11.07;7.13;;;22.80;99.90;;;;;;5048856;28;19944;-70
2021/07/03 09:22:40;;;;;;;13.13;7.85;;;23.20;99.90;;;;;;5048185;28;20056;-67
2021/07/03 09:25:20;;;;;;;10.07;7.75;;;23.70;99.90;;;;;;5050835;28;20047;-67
2021/07/03 09:27:48;;;;;;;9.52;7.57;;;24.20;99.90;;;;;;5050416;28;20056;-68
2021/07/03 09:30:20;;;;;;;9.38;7.10;;;24.50;99.90;;;;;;5053147;28;20493;-69
2021/07/03 09:32:49;;;;;;;9.95;7.30;;;24.50;99.90;;;;;;5052282;28;20033;-68
2021/07/03 09:35:17;;;;;;;9.68;7.18;;;24.60;99.90;;;;;;5052663;28;20091;-69
2021/07/03 09:37:45;;;;;;;8.90;6.70;;;24.50;99.90;;;;;;5030809;28;20045;-68
2021/07/03 09:40:14;;;;;;;10.15;6.97;;;24.40;99.90;;;;;;5045475;28;20045;-68
2021/07/03 09:42:43;;;;;;;8.98;6.55;;;24.20;99.90;;;;;;5045244;28;20094;-68
2021/07/03 09:45:11;;;;;;;9.65;6.82;;;24.10;99.90;;;;;;5038725;28;20053;-69
2021/07/03 09:47:39;;;;;;;9.52;7.05;;;24.40;99.90;;;;;;5047497;28;20569;-68
2021/07/03 09:50:12;;;;;;;10.75;6.90;;;24.70;99.90;;;;;;5052042;28;20395;-68
2021/07/03 09:52:39;;;;;;;9.30;6.18;;;24.90;99.90;;;;;;5039130;28;20504;-67
2021/07/03 09:55:08;;;;;;;8.70;6.53;;;24.90;99.90;;;;;;5037740;28;20072;-69
2021/07/03 09:57:37;;;;;;;9.02;6.57;;;24.70;99.90;;;;;;5049028;28;20095;-68
2021/07/03 10:00:09;;;;;;;9.20;6.60;;;24.60;99.90;;;;;;5049151;28;20041;-68
2021/07/03 10:02:44;;;;;;;7.90;6.47;;;24.70;99.90;;;;;;5052045;28;20072;-68
2021/07/03 10:05:13;;;;;;;9.20;7.25;;;24.70;99.90;;;;;;5052604;28;20118;-68
2021/07/03 10:07:47;;;;;;;12.10;7.45;;;24.60;99.90;;;;;;5023843;28;20136;-68
2021/07/03 10:10:18;;;;;;;11.35;8.57;;;24.30;99.90;;;;;;5050756;28;20159;-68
2021/07/03 10:13:04;;;;;;;10.30;8.35;;;24.00;99.90;;;;;;5047860;28;20061;-68
2021/07/03 10:15:34;;;;;;;12.82;7.82;;;23.90;99.90;;;;;;5043442;28;20049;-68
2021/07/03 10:18:28;;;;;;;10.85;7.43;;;24.00;99.90;;;;;;5049703;28;20099;-68
2021/07/03 10:21:10;;;;;;;12.35;8.68;;;24.10;99.90;;;;;;5043274;28;20045;-68
2021/07/03 10:23:41;;;;;;;9.52;7.38;;;24.50;99.90;;;;;;5050462;28;20045;-68
2021/07/03 10:26:10;;;;;;;8.50;6.60;;;24.80;99.90;;;;;;5051495;28;20398;-68
2021/07/03 10:28:40;;;;;;;11.65;7.45;;;25.20;99.90;;;;;;5040937;28;20520;-68
2021/07/03 10:31:14;;;;;;;9.50;7.05;;;25.40;99.90;;;;;;5043285;28;20056;-68
2021/07/03 10:33:58;;;;;;;9.80;6.93;;;25.50;99.90;;;;;;5046432;28;20051;-68
2021/07/03 10:36:30;;;;;;;10.98;7.45;;;25.60;99.90;;;;;;5048074;28;20123;-68
2021/07/03 10:39:01;;;;;;;9.13;6.53;;;25.60;99.90;;;;;;5046384;28;20049;-68
2021/07/03 10:41:33;;;;;;;10.75;6.80;;;25.50;99.90;;;;;;5046713;28;20069;-68
2021/07/03 10:44:10;;;;;;;8.05;5.63;;;25.80;99.90;;;;;;5040610;28;20500;-68
2021/07/03 10:46:41;;;;;;;9.10;6.25;;;26.20;99.90;;;;;;5041291;28;20041;-68
2021/07/03 10:49:13;;;;;;;7.80;6.07;;;26.20;99.90;;;;;;5048679;28;20060;-69
2021/07/03 10:51:49;;;;;;;7.82;6.13;;;25.90;99.90;;;;;;5043706;28;20089;-69
2021/07/03 10:54:27;;;;;;;9.38;5.63;;;25.70;99.90;;;;;;5045018;28;20349;-69
2021/07/03 10:57:01;;;;;;;7.38;5.85;;;25.70;99.90;;;;;;5050012;28;20072;-69
2021/07/03 10:59:33;;;;;;;8.45;6.45;;;26.00;99.90;;;;;;5060190;28;20446;-69
2021/07/03 11:02:09;;;;;;;8.23;6.40;;;26.30;99.90;;;;;;5051084;28;20078;-69
2021/07/03 11:04:47;;;;;;;10.07;6.70;;;26.30;99.90;;;;;;5037893;28;20526;-68
2021/07/03 11:07:31;;;;;;;8.27;6.15;;;26.50;99.90;;;;;;5036326;28;20037;-69
2021/07/03 11:10:10;;;;;;;10.20;6.25;;;26.60;99.90;;;;;;5030002;28;20080;-69
2021/07/03 11:12:45;;;;;;;7.30;5.47;;;26.70;99.90;;;;;;5031169;28;20040;-69
2021/07/03 11:15:15;;;;;;;7.57;6.10;;;27.00;99.90;;;;;;5043361;28;20395;-70
2021/07/03 11:17:43;;;;;;;9.10;5.88;;;26.80;99.90;;;;;;5050892;28;20091;-69
2021/07/03 11:20:21;;;;;;;7.65;5.32;;;26.80;99.90;;;;;;5041101;28;20393;-70
2021/07/03 11:22:49;;;;;;;6.68;4.95;;;27.10;99.90;;;;;;5042065;28;20460;-69
2021/07/03 11:25:36;;;;;;;8.50;5.43;;;27.40;99.90;;;;;;5049171;28;20447;-70
2021/07/03 11:28:20;;;;;;;7.82;5.15;;;27.40;99.90;;;;;;5045987;28;20488;-69
2021/07/03 11:30:56;;;;;;;9.35;5.45;;;27.60;99.90;;;;;;5047291;28;20045;-69
2021/07/03 11:33:27;;;;;;;8.15;4.90;;;27.90;99.90;;;;;;5049235;28;20045;-69
2021/07/03 11:35:54;;;;;;;7.00;4.50;;;27.90;99.90;;;;;;5043618;28;20128;-68
2021/07/03 11:38:24;;;;;;;9.93;6.10;;;27.90;99.90;;;;;;5049985;28;20102;-69
2021/07/03 11:40:59;;;;;;;7.53;5.25;;;27.80;99.90;;;;;;5049392;28;20504;-69
2021/07/03 11:43:29;;;;;;;6.10;4.93;;;27.70;99.90;;;;;;5047680;28;20123;-69
2021/07/03 11:45:57;;;;;;;8.50;4.82;;;27.80;99.90;;;;;;5039578;28;20312;-69
2021/07/03 11:48:26;;;;;;;7.43;5.15;;;28.00;99.90;;;;;;5047997;28;20033;-70
2021/07/03 11:50:57;;;;;;;8.98;5.03;;;28.40;99.90;;;;;;5042039;28;20057;-70
2021/07/03 11:53:28;;;;;;;6.90;5.00;;;28.50;99.90;;;;;;5047000;28;20095;-70
2021/07/03 11:56:01;;;;;;;8.80;5.47;;;28.50;99.90;;;;;;5049890;28;20132;-70
2021/07/03 11:58:31;;;;;;;7.93;5.43;;;28.00;99.90;;;;;;5026900;28;20060;-69
2021/07/03 12:01:01;;;;;;;8.40;6.10;;;27.80;99.90;;;;;;5041597;28;20684;-70
2021/07/03 12:03:34;;;;;;;8.57;5.10;;;28.00;99.90;;;;;;5047879;28;20114;-70
2021/07/03 12:06:04;;;;;;;7.85;5.28;;;28.10;99.90;;;;;;5048424;28;20071;-70
2021/07/03 12:08:37;;;;;;;8.10;5.50;;;28.20;99.90;;;;;;5017899;28;20621;-69
2021/07/03 12:11:06;;;;;;;7.90;6.10;;;28.90;99.90;;;;;;5048688;28;20044;-70
2021/07/03 12:13:36;;;;;;;7.53;5.70;;;29.40;99.90;;;;;;5033003;28;20590;-70
2021/07/03 12:16:13;;;;;;;6.60;5.13;;;30.20;99.90;;;;;;5048739;28;20504;-70
2021/07/03 12:18:40;;;;;;;6.80;5.03;;;30.70;99.90;;;;;;5048931;28;20151;-71
2021/07/03 12:21:16;;;;;;;6.53;5.10;;;31.30;99.90;;;;;;5049193;28;20048;-71
2021/07/03 12:23:47;;;;;;;8.30;5.20;;;31.60;98.40;;;;;;5044794;28;20057;-70
2021/07/03 12:26:22;;;;;;;6.13;4.50;;;31.30;98.40;;;;;;5048231;28;20520;-70
2021/07/03 12:28:59;;;;;;;6.65;4.35;;;31.30;96.30;;;;;;5039285;28;20052;-70
2021/07/03 12:31:31;;;;;;;7.57;4.78;;;30.70;96.80;;;;;;5049048;28;20065;-70
2021/07/03 12:34:12;;;;;;;6.05;4.57;;;30.30;96.50;;;;;;5048582;28;20049;-70
2021/07/03 12:36:42;;;;;;;8.75;4.72;;;29.70;95.70;;;;;;5032991;28;20045;-71
2021/07/03 12:39:13;;;;;;;6.03;4.68;;;29.10;96.40;;;;;;5041163;28;20075;-70
2021/07/03 12:41:44;;;;;;;7.38;5.80;;;28.50;97.00;;;;;;5048574;28;20041;-70
2021/07/03 12:44:11;;;;;;;8.23;6.38;;;28.70;97.50;;;;;;5047951;28;20496;-70
2021/07/03 12:46:41;;;;;;;6.75;5.13;;;29.60;96.80;;;;;;5036654;28;20044;-70
2021/07/03 12:49:09;;;;;;;7.53;4.90;;;30.60;96.80;;;;;;5042374;28;20504;-70
2021/07/03 12:51:41;;;;;;;7.43;4.30;;;30.60;94.40;;;;;;5042262;28;20041;-70